Cost, Texas
Current Conditions -  °F | °C
As of 1:35 AM on Wednesday 22 Oct 2014 (Local Time) from KT20 Reporting Station
Thunderstorm Thunderstorm  
Wind Chill: 64°   Ceiling: Unl
Heat Index: 64°   Visibility: 10mi
Dew Point: 53°   Wind: 3mph
Humidity: 67%   Direction: 60°ENE
Pressure: 30.03"   Gusts: NA
Location:  29.44°N, 97.53°W
Report Text: KT20 220635Z AUTO 06003KT 10SM VCTS CLR 18/12 A3003 RMK AO2 T01790117
Loading
Personal Weather Stations






























Interactive Weather Map
Tropical Storm Tracking
New forecast layout! Learn more

10-Day Weather Forecast

Advertisements
Track Severe Weather on mobile